Time;durP1;ratioP1;P1;durP2;ratioP2;P2;SDS_P1;SDS_P2;PMS_P1;PMS_P2;Temp;Humidity;BMP_temperature;BMP_pressure;BME280_temperature;BME280_humidity;BME280_pressure;Samples;Min_cycle;Max_cycle;Signal;HPM_P1;HPM_P2
2023/03/08 05:11:54;;;;;;;60.12;26.30;;;;;;;1.60;100.00;99086.97;5558497;32;312959;-85
2023/03/08 05:14:57;;;;;;;59.30;26.40;;;;;;;1.66;100.00;99091.12;5548971;32;33837;-86
2023/03/08 05:18:00;;;;;;;62.35;26.48;;;;;;;1.68;100.00;99097.19;5548781;32;33775;-86
2023/03/08 05:21:07;;;;;;;56.05;26.60;;;;;;;1.77;100.00;99093.41;5551011;32;34201;-84
2023/03/08 05:24:10;;;;;;;53.33;24.87;;;;;;;1.85;100.00;99093.97;5554615;32;33870;-84
2023/03/08 05:27:13;;;;;;;55.00;25.65;;;;;;;1.87;100.00;99089.53;5553779;32;33960;-84
2023/03/08 05:30:16;;;;;;;48.13;24.23;;;;;;;1.99;100.00;99092.63;5549638;32;34953;-84
2023/03/08 05:33:19;;;;;;;47.50;24.10;;;;;;;1.91;100.00;99099.91;5550235;32;33899;-85
2023/03/08 05:36:22;;;;;;;47.90;22.95;;;;;;;1.90;100.00;99103.44;5550534;32;33777;-85
2023/03/08 05:39:26;;;;;;;43.70;21.75;;;;;;;1.93;100.00;99116.37;5550933;32;34285;-85
2023/03/08 05:42:31;;;;;;;49.92;23.25;;;;;;;1.91;100.00;99126.91;5553033;32;33968;-89
2023/03/08 05:45:34;;;;;;;40.22;20.98;;;;;;;2.22;100.00;99138.06;5560721;32;35241;-88
2023/03/08 05:48:37;;;;;;;43.58;21.62;;;;;;;2.29;100.00;99140.44;5560216;32;34049;-89
2023/03/08 05:51:41;;;;;;;40.83;20.02;;;;;;;2.51;100.00;99141.44;5561307;32;35167;-89
2023/03/08 05:54:44;;;;;;;33.78;18.75;;;;;;;2.61;100.00;99141.94;5560809;32;34993;-87
2023/03/08 05:57:48;;;;;;;29.50;16.48;;;;;;;2.79;100.00;99140.37;5560539;32;35171;-86
2023/03/08 06:00:51;;;;;;;33.20;16.92;;;;;;;2.96;100.00;99153.72;5559861;32;35136;-86
2023/03/08 06:03:56;;;;;;;27.60;15.40;;;;;;;3.23;100.00;99160.56;5560311;32;34747;-86
2023/03/08 06:07:00;;;;;;;25.05;14.75;;;;;;;3.55;100.00;99168.06;5560136;32;34980;-86
2023/03/08 06:10:04;;;;;;;30.35;15.23;;;;;;;3.66;100.00;99171.09;5559869;32;36067;-86
2023/03/08 06:13:06;;;;;;;25.98;14.63;;;;;;;3.91;100.00;99173.59;5560442;32;35259;-87
2023/03/08 06:16:10;;;;;;;26.23;15.05;;;;;;;4.08;100.00;99176.41;5559411;32;34276;-86
2023/03/08 06:19:13;;;;;;;25.92;14.43;;;;;;;4.16;100.00;99184.81;5559962;32;35228;-85
2023/03/08 06:22:17;;;;;;;24.52;14.35;;;;;;;4.18;100.00;99177.75;5551383;32;34785;-85
2023/03/08 06:25:20;;;;;;;24.35;14.35;;;;;;;4.17;100.00;99179.50;5546721;32;35145;-85
2023/03/08 06:28:27;;;;;;;26.50;14.75;;;;;;;4.17;100.00;99184.75;5546498;32;35252;-83
2023/03/08 06:31:31;;;;;;;27.75;14.57;;;;;;;4.28;100.00;99189.53;5545757;32;34076;-83
2023/03/08 06:34:35;;;;;;;28.30;14.93;;;;;;;4.55;100.00;99196.28;5545652;32;34652;-83
2023/03/08 06:37:37;;;;;;;24.33;14.10;;;;;;;4.79;100.00;99197.00;5545212;32;34879;-84
2023/03/08 06:40:40;;;;;;;25.20;14.13;;;;;;;4.89;100.00;99199.19;5537504;32;35257;-82
2023/03/08 06:43:43;;;;;;;28.17;15.00;;;;;;;5.11;100.00;99207.81;5547431;32;34002;-83
2023/03/08 06:46:46;;;;;;;24.98;14.27;;;;;;;5.63;100.00;99203.66;5545375;32;32854;-83
2023/03/08 06:49:49;;;;;;;27.23;13.88;;;;;;;5.88;100.00;99214.78;5548113;32;33745;-83
2023/03/08 06:52:53;;;;;;;23.87;13.32;;;;;;;5.80;100.00;99217.78;5542908;32;34842;-83
2023/03/08 06:55:57;;;;;;;24.42;13.90;;;;;;;5.83;100.00;99217.63;5536935;32;34306;-83
2023/03/08 06:59:01;;;;;;;24.37;12.85;;;;;;;5.43;100.00;99215.13;5536496;32;34093;-83
2023/03/08 07:02:04;;;;;;;21.87;13.43;;;;;;;5.39;100.00;99221.47;5538137;32;33632;-83
2023/03/08 07:05:07;;;;;;;24.20;12.57;;;;;;;5.24;100.00;99218.59;5530734;32;34152;-83
2023/03/08 07:08:10;;;;;;;21.80;12.73;;;;;;;5.24;100.00;99225.66;5533426;32;33566;-83
2023/03/08 07:11:12;;;;;;;23.23;12.48;;;;;;;5.31;100.00;99228.84;5537148;32;33740;-83
2023/03/08 07:14:15;;;;;;;28.08;13.40;;;;;;;5.31;100.00;99240.22;5531529;32;33672;-83
2023/03/08 07:17:18;;;;;;;23.52;12.02;;;;;;;5.31;99.94;99239.34;5553491;32;34452;-83
2023/03/08 07:20:22;;;;;;;25.60;12.52;;;;;;;5.38;97.74;99252.16;5560074;32;34304;-83
2023/03/08 07:23:25;;;;;;;23.77;12.68;;;;;;;5.30;98.35;99258.69;5552050;32;34028;-83
2023/03/08 07:26:28;;;;;;;25.83;13.02;;;;;;;5.51;97.39;99262.13;5554377;32;34188;-83
2023/03/08 07:29:31;;;;;;;25.00;12.50;;;;;;;5.57;96.82;99264.47;5553939;32;33416;-83
2023/03/08 07:32:35;;;;;;;23.58;13.35;;;;;;;5.55;97.16;99271.59;5551684;32;34333;-83
2023/03/08 07:35:38;;;;;;;23.08;13.18;;;;;;;5.86;95.28;99266.63;5551543;32;33721;-83
2023/03/08 07:38:41;;;;;;;21.80;12.73;;;;;;;5.99;93.72;99262.47;5557334;32;33692;-83
2023/03/08 07:41:45;;;;;;;22.67;12.98;;;;;;;6.12;93.05;99265.41;5560391;32;34074;-84
2023/03/08 07:44:49;;;;;;;20.92;12.85;;;;;;;5.92;90.80;99268.97;5562763;32;33744;-84
2023/03/08 07:47:52;;;;;;;29.10;13.40;;;;;;;6.02;92.61;99279.91;5552790;32;34053;-85
2023/03/08 07:51:01;;;;;;;22.45;13.07;;;;;;;5.94;91.59;99272.41;5547196;32;33640;-84
2023/03/08 07:54:04;;;;;;;21.60;12.23;;;;;;;6.09;91.44;99278.72;5553835;32;34098;-89
2023/03/08 07:57:12;;;;;;;21.75;12.80;;;;;;;6.54;87.87;99278.28;5553882;32;33637;-90
2023/03/08 08:00:16;;;;;;;22.52;13.45;;;;;;;6.76;85.10;99279.81;5554015;32;33869;-86
2023/03/08 08:03:19;;;;;;;20.80;12.30;;;;;;;6.78;85.08;99291.16;5559701;32;34404;-87
2023/03/08 08:06:22;;;;;;;21.70;11.63;;;;;;;6.74;82.42;99286.03;5557546;32;34626;-86
2023/03/08 08:09:28;;;;;;;18.10;11.35;;;;;;;6.84;81.07;99294.31;5553057;32;34686;-86
2023/03/08 08:12:30;;;;;;;19.70;11.68;;;;;;;7.07;79.22;99296.69;5552799;32;34686;-83
2023/03/08 08:15:33;;;;;;;22.40;11.63;;;;;;;7.22;79.56;99302.94;5556642;32;34070;-82
2023/03/08 08:18:36;;;;;;;17.37;10.57;;;;;;;7.03;79.37;99301.25;5553199;32;34428;-84
2023/03/08 08:21:40;;;;;;;22.37;11.75;;;;;;;7.17;78.53;99305.81;5554993;32;34229;-84
2023/03/08 08:24:43;;;;;;;19.05;10.70;;;;;;;7.19;77.66;99309.22;5553936;32;33800;-84
2023/03/08 08:27:46;;;;;;;18.50;11.32;;;;;;;7.29;75.85;99309.56;5553252;32;34096;-85
2023/03/08 08:31:06;;;;;;;18.40;10.60;;;;;;;7.32;75.95;99308.56;5558389;32;33792;-84
2023/03/08 08:34:09;;;;;;;;;;;;;;;7.74;73.66;99314.25;5551998;32;35712;-86
2023/03/08 08:37:12;;;;;;;19.98;10.43;;;;;;;7.96;71.41;99300.72;5558650;32;34220;-84
2023/03/08 08:40:15;;;;;;;20.35;10.73;;;;;;;7.65;72.62;99305.06;5558838;32;33706;-84
2023/03/08 08:43:17;;;;;;;15.27;10.13;;;;;;;7.86;72.76;99296.88;5551159;32;34081;-84
2023/03/08 08:46:21;;;;;;;18.90;10.25;;;;;;;7.82;71.87;99299.69;5561421;32;35269;-85
2023/03/08 08:49:23;;;;;;;21.42;10.95;;;;;;;8.03;70.86;99303.84;5562859;32;34302;-84
2023/03/08 08:52:26;;;;;;;18.10;10.23;;;;;;;7.96;69.90;99301.53;5561648;32;34096;-86
2023/03/08 08:55:28;;;;;;;17.62;10.13;;;;;;;7.94;69.95;99295.50;5556048;32;34694;-85
2023/03/08 08:58:33;;;;;;;14.52;9.82;;;;;;;7.90;69.63;99306.34;5567422;32;34539;-85
2023/03/08 09:01:38;;;;;;;16.20;9.85;;;;;;;8.09;69.20;99290.28;5554085;32;34165;-85
2023/03/08 09:04:41;;;;;;;15.85;9.50;;;;;;;8.60;66.48;99289.19;5552784;32;34279;-84
2023/03/08 09:07:44;;;;;;;14.52;9.55;;;;;;;8.93;65.05;99288.12;5553569;32;33851;-84
2023/03/08 09:10:47;;;;;;;15.43;9.43;;;;;;;8.94;62.22;99289.81;5550405;32;33730;-83
2023/03/08 09:13:50;;;;;;;13.55;9.02;;;;;;;9.04;61.54;99292.75;5553552;32;34219;-85
2023/03/08 09:16:53;;;;;;;15.90;9.43;;;;;;;8.79;61.74;99290.75;5568226;32;33697;-84
2023/03/08 09:19:56;;;;;;;14.55;9.35;;;;;;;9.50;60.84;99282.94;5552935;32;33846;-86
2023/03/08 09:22:59;;;;;;;14.50;9.70;;;;;;;10.07;56.91;99278.44;5563386;32;32422;-84
2023/03/08 09:26:04;;;;;;;16.62;9.48;;;;;;;10.63;55.90;99273.00;5565758;32;33845;-84
2023/03/08 09:29:09;;;;;;;14.52;9.18;;;;;;;10.78;52.37;99273.72;5554304;32;34047;-84
2023/03/08 09:32:12;;;;;;;13.68;8.45;;;;;;;11.08;51.77;99274.41;5551058;32;33889;-84
2023/03/08 09:35:16;;;;;;;16.02;9.20;;;;;;;11.32;49.51;99270.97;5551246;32;34170;-84
2023/03/08 09:38:18;;;;;;;14.43;9.38;;;;;;;11.16;49.93;99279.16;5550454;32;34189;-84
2023/03/08 09:41:42;;;;;;;15.13;9.10;;;;;;;11.08;49.45;99273.53;5546530;32;33716;-81
2023/03/08 09:45:04;;;;;;;16.37;8.38;;;;;;;12.46;46.71;99268.13;5561466;32;33874;-88
2023/03/08 09:48:19;;;;;;;15.13;8.13;;;;;;;12.96;46.36;99280.38;5552950;32;33960;-83
2023/03/08 09:51:24;;;;;;;14.38;8.82;;;;;;;12.60;51.45;99275.94;5541083;32;34379;-83
2023/03/08 09:54:28;;;;;;;14.02;8.13;;;;;;;13.07;44.80;99280.34;5550504;32;34108;-83
2023/03/08 09:57:39;;;;;;;21.60;8.98;;;;;;;13.31;50.48;99277.59;5551186;32;35210;-83
2023/03/08 10:00:43;;;;;;;14.50;8.82;;;;;;;13.12;43.86;99280.84;5553172;32;34062;-83
2023/03/08 10:04:01;;;;;;;15.82;8.85;;;;;;;13.31;41.93;99279.41;5556949;32;34329;-83
2023/03/08 10:07:17;;;;;;;13.62;8.45;;;;;;;13.11;42.13;99264.97;5548931;32;33907;-83
2023/03/08 10:10:40;;;;;;;12.68;8.70;;;;;;;13.25;41.21;99255.91;5550276;32;33907;-83
2023/03/08 10:13:54;;;;;;;10.32;8.07;;;;;;;13.71;39.76;99246.94;5550673;32;34542;-83
2023/03/08 10:17:09;;;;;;;15.10;7.90;;;;;;;13.98;38.79;99255.50;5532743;32;32440;-82
2023/03/08 10:20:11;;;;;;;13.15;8.90;;;;;;;13.99;41.98;99254.50;5546644;32;34201;-85
2023/03/08 10:23:18;;;;;;;13.62;8.60;;;;;;;13.35;39.62;99251.56;5563931;32;34728;-85
2023/03/08 10:26:20;;;;;;;11.25;8.35;;;;;;;12.84;40.64;99258.19;5556000;32;35111;-84
2023/03/08 10:29:23;;;;;;;14.02;8.40;;;;;;;12.98;40.68;99249.13;5563974;32;34255;-84
2023/03/08 10:32:28;;;;;;;12.05;8.13;;;;;;;12.77;40.40;99256.00;5552660;32;33990;-88
2023/03/08 10:35:33;;;;;;;11.35;7.65;;;;;;;12.41;40.65;99252.53;5549339;32;34049;-89
2023/03/08 10:38:36;;;;;;;12.70;7.90;;;;;;;12.21;42.90;99251.34;5552269;32;35036;-89
2023/03/08 10:41:46;;;;;;;12.02;8.25;;;;;;;12.79;41.92;99254.06;5546075;32;34687;-85
2023/03/08 10:44:56;;;;;;;16.45;11.90;;;;;;;12.64;41.63;99253.44;5553014;32;34094;-85
2023/03/08 10:48:04;;;;;;;22.58;12.25;;;;;;;12.52;44.41;99246.37;5557243;32;34296;-82
2023/03/08 10:51:16;;;;;;;18.62;11.70;;;;;;;12.59;45.72;99254.75;5538742;32;34438;-82
2023/03/08 10:54:19;;;;;;;16.30;11.60;;;;;;;12.85;45.26;99255.41;5536337;32;33902;-82
2023/03/08 10:57:24;;;;;;;20.42;12.23;;;;;;;13.25;44.27;99234.62;5554382;32;35034;-82
2023/03/08 11:00:37;;;;;;;19.77;11.73;;;;;;;13.13;44.11;99239.94;5550010;32;33865;-83
2023/03/08 11:03:40;;;;;;;23.77;13.23;;;;;;;12.91;46.27;99233.66;5553485;32;33824;-83
2023/03/08 11:06:43;;;;;;;17.90;13.02;;;;;;;13.11;44.84;99231.22;5557129;32;34114;-85
2023/03/08 11:09:46;;;;;;;23.50;13.15;;;;;;;12.98;45.60;99230.50;5550469;32;34068;-85
2023/03/08 11:13:09;;;;;;;20.80;12.82;;;;;;;12.46;46.31;99220.25;5541053;32;33443;-85
2023/03/08 11:16:15;;;;;;;18.52;12.32;;;;;;;11.86;47.28;99227.25;5551433;32;34251;-85
2023/03/08 11:19:33;;;;;;;21.50;12.05;;;;;;;12.49;45.35;99207.59;5554470;32;34674;-84
2023/03/08 11:22:59;;;;;;;21.02;11.85;;;;;;;11.79;46.58;99207.41;5541177;32;34826;-84
2023/03/08 11:26:20;;;;;;;20.50;12.40;;;;;;;12.12;45.92;99210.38;5547677;32;34015;-83
2023/03/08 11:29:44;;;;;;;18.57;11.80;;;;;;;12.19;45.17;99203.63;5554916;32;34235;-87
2023/03/08 11:32:54;;;;;;;19.42;11.43;;;;;;;11.75;46.27;99202.44;5546114;32;33887;-83
2023/03/08 11:36:29;;;;;;;17.02;11.40;;;;;;;12.08;45.70;99204.41;5547995;32;34427;-83
2023/03/08 11:39:37;;;;;;;19.40;11.98;;;;;;;12.27;44.59;99211.00;5558951;32;34337;-82
2023/03/08 11:42:50;;;;;;;18.87;10.70;;;;;;;11.95;45.26;99201.81;5554594;32;34295;-81
2023/03/08 11:45:52;;;;;;;17.20;11.15;;;;;;;11.76;46.10;99201.50;5551614;32;33856;-81
2023/03/08 11:49:19;;;;;;;16.90;10.60;;;;;;;11.54;45.31;99195.94;5548022;32;33872;-82
2023/03/08 11:52:56;;;;;;;17.87;11.18;;;;;;;10.90;46.35;99196.91;5538184;32;34538;-83
2023/03/08 11:56:29;;;;;;;20.85;10.95;;;;;;;10.65;47.32;99194.19;5513453;32;34580;-84
2023/03/08 11:59:49;;;;;;;17.87;11.02;;;;;;;9.99;48.75;99191.50;5557750;32;34195;-84
2023/03/08 12:02:55;;;;;;;16.00;10.23;;;;;;;9.96;49.14;99191.72;5557658;32;34024;-84
2023/03/08 12:06:05;;;;;;;21.67;11.45;;;;;;;10.06;49.69;99184.84;5550193;32;32957;-84
2023/03/08 12:09:35;;;;;;;17.60;10.73;;;;;;;10.09;49.41;99186.44;5546856;32;33949;-84
2023/03/08 12:12:43;;;;;;;17.33;10.35;;;;;;;10.07;49.36;99172.44;5548346;32;34032;-84
2023/03/08 12:15:54;;;;;;;18.65;9.88;;;;;;;9.90;49.97;99169.13;5546488;32;34545;-84
2023/03/08 12:19:28;;;;;;;18.92;9.57;;;;;;;9.94;49.22;99167.97;5541312;32;34606;-84
2023/03/08 12:22:58;;;;;;;14.82;9.05;;;;;;;10.10;48.20;99166.94;5548049;32;33810;-84
2023/03/08 12:26:32;;;;;;;16.95;9.02;;;;;;;10.25;47.77;99160.59;5549871;32;34233;-87
2023/03/08 12:29:39;;;;;;;12.52;7.75;;;;;;;10.18;47.49;99161.97;5540560;32;35498;-84
2023/03/08 12:32:44;;;;;;;12.57;7.78;;;;;;;10.25;46.37;99171.22;5546444;32;32829;-84
2023/03/08 12:36:03;;;;;;;10.82;6.85;;;;;;;10.37;45.60;99164.22;5550734;32;34390;-85
2023/03/08 12:39:26;;;;;;;12.40;8.18;;;;;;;10.53;44.94;99160.56;5550272;32;34253;-84
2023/03/08 12:42:38;;;;;;;14.15;8.68;;;;;;;10.41;45.90;99148.94;5536676;32;34604;-85
2023/03/08 12:45:43;;;;;;;15.32;9.40;;;;;;;10.41;46.64;99143.62;5540707;32;34666;-85
2023/03/08 12:48:49;;;;;;;17.08;9.27;;;;;;;10.52;47.21;99129.69;5543466;32;33647;-84
2023/03/08 12:52:18;;;;;;;19.58;9.55;;;;;;;10.78;46.99;99129.66;5537810;32;34093;-84
2023/03/08 12:55:35;;;;;;;16.35;9.85;;;;;;;10.78;47.49;99122.53;5551854;32;33952;-84
2023/03/08 12:58:54;;;;;;;16.90;10.40;;;;;;;10.65;47.76;99111.09;5551320;32;33571;-84
2023/03/08 13:01:56;;;;;;;21.25;11.12;;;;;;;10.52;49.06;99104.00;5548913;32;34049;-89
2023/03/08 13:05:21;;;;;;;19.98;11.02;;;;;;;10.57;49.05;99089.59;5549555;32;34107;-89
2023/03/08 13:08:40;;;;;;;16.98;10.88;;;;;;;10.71;48.37;99070.87;5538935;32;34372;-85
2023/03/08 13:12:00;;;;;;;15.30;10.20;;;;;;;10.77;48.32;99062.50;5561227;32;32614;-86
2023/03/08 13:15:17;;;;;;;16.73;9.38;;;;;;;10.79;47.32;99062.38;5548673;32;33998;-84
2023/03/08 13:18:22;;;;;;;14.00;9.48;;;;;;;10.57;47.46;99053.28;5546556;32;34404;-85
2023/03/08 13:21:37;;;;;;;15.95;9.07;;;;;;;10.48;47.85;99032.75;5528067;32;32250;-85
2023/03/08 13:24:48;;;;;;;18.70;9.35;;;;;;;10.69;47.33;99021.56;5536394;32;33795;-86
2023/03/08 13:27:56;;;;;;;18.80;9.35;;;;;;;10.44;47.85;99020.66;5554321;32;34629;-85
2023/03/08 13:31:27;;;;;;;14.75;9.23;;;;;;;10.64;46.81;99016.59;5559458;32;34184;-85
2023/03/08 13:34:32;;;;;;;11.65;8.23;;;;;;;10.58;46.13;99020.53;5534169;32;34485;-85
2023/03/08 13:37:35;;;;;;;12.57;7.50;;;;;;;10.57;45.48;99000.25;5536598;32;33632;-85
2023/03/08 13:40:40;;;;;;;12.60;7.43;;;;;;;10.49;45.27;99005.28;5535131;32;34729;-85
2023/03/08 13:43:43;;;;;;;10.15;6.82;;;;;;;10.63;44.75;98991.91;5534814;32;34608;-88
2023/03/08 13:46:48;;;;;;;17.70;7.45;;;;;;;10.48;44.35;98980.59;5531439;32;33991;-89
2023/03/08 13:49:54;;;;;;;13.13;7.72;;;;;;;10.29;45.80;98978.38;5568803;32;34043;-86
2023/03/08 13:53:00;;;;;;;22.00;7.95;;;;;;;10.42;46.27;98974.84;5567162;32;33618;-85
2023/03/08 13:56:05;;;;;;;12.55;6.72;;;;;;;10.48;46.75;98967.34;5569905;32;33820;-86
2023/03/08 13:59:19;;;;;;;13.43;7.60;;;;;;;10.46;47.01;98976.34;5557986;32;34358;-86
2023/03/08 14:02:26;;;;;;;13.15;7.03;;;;;;;10.22;48.29;98961.22;5553319;32;33857;-85
2023/03/08 14:05:42;;;;;;;15.00;7.10;;;;;;;10.38;48.65;98967.09;5554584;32;34476;-85
2023/03/08 14:08:46;;;;;;;13.00;7.10;;;;;;;10.46;48.82;98966.56;5554518;32;33989;-86
2023/03/08 14:12:07;;;;;;;13.38;6.47;;;;;;;10.55;49.24;98969.53;5555713;32;34302;-84
2023/03/08 14:15:17;;;;;;;11.85;7.10;;;;;;;10.68;49.79;98970.34;5558703;32;34935;-84
2023/03/08 14:18:23;;;;;;;12.50;7.00;;;;;;;10.69;51.03;98969.38;5563114;32;34190;-84
2023/03/08 14:21:28;;;;;;;11.93;7.32;;;;;;;10.69;51.89;98964.06;5554424;32;33728;-85
2023/03/08 14:24:35;;;;;;;12.30;6.93;;;;;;;10.80;51.89;98951.84;5536817;32;34104;-84
2023/03/08 14:27:40;;;;;;;13.43;6.40;;;;;;;10.90;52.47;98958.13;5540739;32;33972;-85
2023/03/08 14:30:47;;;;;;;12.45;7.12;;;;;;;10.84;53.18;98962.09;5541583;32;34214;-85
2023/03/08 14:33:59;;;;;;;9.82;6.57;;;;;;;10.67;54.22;98954.53;5540123;32;34140;-85
2023/03/08 14:37:19;;;;;;;12.73;6.85;;;;;;;10.79;54.07;98961.59;5542307;32;34006;-86
2023/03/08 14:40:32;;;;;;;16.73;6.95;;;;;;;10.99;54.13;98961.91;5573635;32;32973;-85
2023/03/08 14:43:36;;;;;;;10.02;6.03;;;;;;;11.08;53.92;98965.69;5574142;32;34309;-89
2023/03/08 14:46:39;;;;;;;14.63;6.53;;;;;;;11.00;55.24;98967.13;5574571;32;34382;-88
2023/03/08 14:49:42;;;;;;;9.13;5.70;;;;;;;10.80;56.36;98970.41;5575135;32;33996;-90
2023/03/08 14:52:51;;;;;;;12.45;6.32;;;;;;;10.75;57.26;98970.72;5573709;32;34249;-85
2023/03/08 14:55:55;;;;;;;11.98;6.00;;;;;;;10.49;58.96;98969.03;5572405;32;33962;-85
2023/03/08 14:59:00;;;;;;;10.32;6.37;;;;;;;10.51;59.51;98974.19;5572376;32;34390;-85
2023/03/08 15:02:12;;;;;;;12.43;6.95;;;;;;;10.55;59.62;98964.25;5572136;32;33991;-85
2023/03/08 15:05:17;;;;;;;14.93;6.15;;;;;;;10.51;60.28;98945.03;5572288;32;34562;-85
2023/03/08 15:08:30;;;;;;;16.17;6.25;;;;;;;10.66;60.23;98945.72;5572164;32;34100;-84
2023/03/08 15:11:34;;;;;;;12.52;6.45;;;;;;;10.59;61.46;98942.69;5571590;32;34238;-85
2023/03/08 15:14:37;;;;;;;8.82;6.15;;;;;;;10.73;61.16;98924.91;5570859;32;33889;-85
2023/03/08 15:17:40;;;;;;;10.05;6.53;;;;;;;10.59;62.82;98918.81;5571437;32;34148;-84
2023/03/08 15:20:48;;;;;;;11.98;6.47;;;;;;;10.60;63.50;98911.69;5571050;32;34817;-85
2023/03/08 15:23:50;;;;;;;12.70;6.80;;;;;;;10.59;63.99;98907.34;5571182;32;34160;-86
2023/03/08 15:26:54;;;;;;;10.68;6.78;;;;;;;10.59;64.26;98910.00;5570330;32;34213;-86
2023/03/08 15:29:57;;;;;;;16.15;7.55;;;;;;;10.42;65.49;98898.81;5571797;32;34013;-85
2023/03/08 15:33:01;;;;;;;14.55;7.40;;;;;;;10.43;66.38;98899.69;5570095;32;35429;-84
2023/03/08 15:36:04;;;;;;;14.07;6.62;;;;;;;10.42;66.55;98895.31;5571578;32;34367;-85
2023/03/08 15:39:11;;;;;;;15.30;7.37;;;;;;;10.45;67.19;98897.75;5572892;32;33605;-84
2023/03/08 15:42:13;;;;;;;11.80;6.57;;;;;;;10.45;68.12;98892.44;5572453;32;34196;-84
2023/03/08 15:45:16;;;;;;;11.70;6.53;;;;;;;10.40;70.12;98887.47;5570216;32;33948;-85
2023/03/08 15:48:19;;;;;;;15.43;6.90;;;;;;;10.43;70.87;98876.69;5570169;32;34921;-85
2023/03/08 15:51:28;;;;;;;10.85;6.90;;;;;;;10.42;72.20;98874.97;5562307;32;35356;-85
2023/03/08 15:54:31;;;;;;;13.90;7.05;;;;;;;10.33;73.34;98862.38;5563711;32;33461;-85
2023/03/08 15:57:36;;;;;;;11.60;6.78;;;;;;;10.37;74.45;98856.72;5583383;32;34742;-85
2023/03/08 16:00:38;;;;;;;12.07;7.25;;;;;;;10.41;74.90;98859.16;5563073;32;34153;-85
2023/03/08 16:03:41;;;;;;;13.18;7.35;;;;;;;10.37;75.95;98842.63;5549284;32;34498;-85
2023/03/08 16:06:44;;;;;;;12.50;6.97;;;;;;;10.40;77.00;98853.00;5551063;32;34674;-84
2023/03/08 16:09:47;;;;;;;12.90;7.45;;;;;;;10.35;78.29;98847.19;5552665;32;33579;-85
2023/03/08 16:12:49;;;;;;;12.45;7.32;;;;;;;10.29;79.28;98845.84;5553166;32;34936;-84
2023/03/08 16:15:56;;;;;;;16.90;7.40;;;;;;;10.36;79.51;98844.44;5551766;32;34130;-85
2023/03/08 16:18:59;;;;;;;13.43;7.60;;;;;;;10.31;81.10;98846.56;5553295;32;33964;-84
2023/03/08 16:22:03;;;;;;;16.73;8.55;;;;;;;10.34;81.25;98837.53;5551956;32;34118;-84
